sensor_id;sensor_type;location;lat;lon;timestamp;pressure;altitude;pressure_sealevel;temperature;humidity
27429;BME280;14881;48.092;11.574;2022-12-07T00:01:04;95380.50;;;2.26;100.00
27429;BME280;14881;48.092;11.574;2022-12-07T00:03:35;95379.38;;;2.22;100.00
27429;BME280;14881;48.092;11.574;2022-12-07T00:06:04;95381.25;;;2.21;100.00
27429;BME280;14881;48.092;11.574;2022-12-07T00:08:34;95379.03;;;2.18;100.00
27429;BME280;14881;48.092;11.574;2022-12-07T00:11:03;95371.34;;;2.22;100.00
27429;BME280;14881;48.092;11.574;2022-12-07T00:13:31;95372.41;;;2.21;100.00
27429;BME280;14881;48.092;11.574;2022-12-07T00:16:00;95376.28;;;2.30;100.00
27429;BME280;14881;48.092;11.574;2022-12-07T00:18:29;95369.78;;;2.26;100.00
27429;BME280;14881;48.092;11.574;2022-12-07T00:21:00;95368.66;;;2.22;100.00
27429;BME280;14881;48.092;11.574;2022-12-07T00:23:29;95364.34;;;2.21;100.00
27429;BME280;14881;48.092;11.574;2022-12-07T00:26:03;95365.97;;;2.22;100.00
27429;BME280;14881;48.092;11.574;2022-12-07T00:28:31;95362.00;;;2.24;100.00
27429;BME280;14881;48.092;11.574;2022-12-07T00:31:01;95358.00;;;2.27;100.00
27429;BME280;14881;48.092;11.574;2022-12-07T00:33:29;95363.06;;;2.23;100.00
27429;BME280;14881;48.092;11.574;2022-12-07T00:35:58;95358.75;;;2.22;100.00
27429;BME280;14881;48.092;11.574;2022-12-07T00:38:29;95352.34;;;2.23;100.00
27429;BME280;14881;48.092;11.574;2022-12-07T00:40:59;95355.91;;;2.29;100.00
27429;BME280;14881;48.092;11.574;2022-12-07T00:43:27;95366.56;;;2.24;100.00
27429;BME280;14881;48.092;11.574;2022-12-07T00:45:55;95355.50;;;2.20;100.00
27429;BME280;14881;48.092;11.574;2022-12-07T00:48:23;95364.50;;;2.14;100.00
27429;BME280;14881;48.092;11.574;2022-12-07T00:50:51;95364.91;;;2.06;100.00
27429;BME280;14881;48.092;11.574;2022-12-07T00:53:19;95366.19;;;2.03;100.00
27429;BME280;14881;48.092;11.574;2022-12-07T00:55:48;95360.50;;;2.00;100.00
27429;BME280;14881;48.092;11.574;2022-12-07T00:58:16;95358.75;;;1.94;100.00
27429;BME280;14881;48.092;11.574;2022-12-07T01:00:44;95357.22;;;1.98;100.00
27429;BME280;14881;48.092;11.574;2022-12-07T01:03:13;95360.84;;;1.92;100.00
27429;BME280;14881;48.092;11.574;2022-12-07T01:05:49;95363.06;;;1.95;100.00
27429;BME280;14881;48.092;11.574;2022-12-07T01:08:17;95356.31;;;1.92;100.00
27429;BME280;14881;48.092;11.574;2022-12-07T01:10:45;95359.31;;;1.96;100.00
27429;BME280;14881;48.092;11.574;2022-12-07T01:13:15;95365.03;;;1.99;100.00
27429;BME280;14881;48.092;11.574;2022-12-07T01:15:43;95356.66;;;1.96;100.00
27429;BME280;14881;48.092;11.574;2022-12-07T01:18:11;95350.94;;;1.92;100.00
27429;BME280;14881;48.092;11.574;2022-12-07T01:20:39;95360.97;;;1.97;100.00
27429;BME280;14881;48.092;11.574;2022-12-07T01:23:07;95357.69;;;1.95;100.00
27429;BME280;14881;48.092;11.574;2022-12-07T01:25:34;95359.81;;;1.93;100.00
27429;BME280;14881;48.092;11.574;2022-12-07T01:28:03;95357.13;;;1.93;100.00
27429;BME280;14881;48.092;11.574;2022-12-07T01:30:32;95361.91;;;1.91;100.00
27429;BME280;14881;48.092;11.574;2022-12-07T01:33:00;95365.09;;;1.88;100.00
27429;BME280;14881;48.092;11.574;2022-12-07T01:35:27;95361.59;;;1.87;100.00
27429;BME280;14881;48.092;11.574;2022-12-07T01:37:58;95373.19;;;1.93;100.00
27429;BME280;14881;48.092;11.574;2022-12-07T01:40:25;95369.00;;;1.97;100.00
27429;BME280;14881;48.092;11.574;2022-12-07T01:42:53;95364.44;;;1.97;100.00
27429;BME280;14881;48.092;11.574;2022-12-07T01:45:43;95366.56;;;1.95;100.00
27429;BME280;14881;48.092;11.574;2022-12-07T01:48:16;95354.56;;;1.98;100.00
27429;BME280;14881;48.092;11.574;2022-12-07T01:50:48;95361.19;;;1.95;100.00
27429;BME280;14881;48.092;11.574;2022-12-07T01:53:21;95355.03;;;1.95;100.00
27429;BME280;14881;48.092;11.574;2022-12-07T01:55:52;95350.72;;;1.94;100.00
27429;BME280;14881;48.092;11.574;2022-12-07T01:58:22;95348.38;;;1.97;100.00
27429;BME280;14881;48.092;11.574;2022-12-07T02:00:51;95353.63;;;1.92;100.00
27429;BME280;14881;48.092;11.574;2022-12-07T02:03:24;95354.41;;;2.04;100.00
27429;BME280;14881;48.092;11.574;2022-12-07T02:05:55;95350.19;;;2.08;100.00
27429;BME280;14881;48.092;11.574;2022-12-07T02:08:23;95356.63;;;2.07;100.00
27429;BME280;14881;48.092;11.574;2022-12-07T02:10:51;95347.78;;;2.07;100.00
27429;BME280;14881;48.092;11.574;2022-12-07T02:13:22;95351.66;;;2.16;100.00
27429;BME280;14881;48.092;11.574;2022-12-07T02:16:13;95352.47;;;2.17;100.00
27429;BME280;14881;48.092;11.574;2022-12-07T02:18:56;95351.34;;;2.13;100.00
27429;BME280;14881;48.092;11.574;2022-12-07T02:21:34;95348.66;;;2.13;100.00
27429;BME280;14881;48.092;11.574;2022-12-07T02:24:15;95343.78;;;2.09;100.00
27429;BME280;14881;48.092;11.574;2022-12-07T02:27:10;95344.19;;;2.01;100.00
27429;BME280;14881;48.092;11.574;2022-12-07T02:29:47;95345.34;;;1.94;100.00
27429;BME280;14881;48.092;11.574;2022-12-07T02:32:18;95338.47;;;1.98;100.00
27429;BME280;14881;48.092;11.574;2022-12-07T02:34:50;95346.03;;;2.01;100.00
27429;BME280;14881;48.092;11.574;2022-12-07T02:37:27;95347.91;;;2.00;100.00
27429;BME280;14881;48.092;11.574;2022-12-07T02:40:00;95337.56;;;1.92;100.00
27429;BME280;14881;48.092;11.574;2022-12-07T02:42:33;95336.69;;;1.87;100.00
27429;BME280;14881;48.092;11.574;2022-12-07T02:45:06;95346.47;;;1.81;100.00
27429;BME280;14881;48.092;11.574;2022-12-07T02:47:35;95342.28;;;1.85;100.00
27429;BME280;14881;48.092;11.574;2022-12-07T02:50:06;95337.03;;;1.79;100.00
27429;BME280;14881;48.092;11.574;2022-12-07T02:52:34;95331.91;;;1.77;100.00
27429;BME280;14881;48.092;11.574;2022-12-07T02:55:02;95332.97;;;1.76;100.00
27429;BME280;14881;48.092;11.574;2022-12-07T02:57:46;95340.47;;;1.91;100.00
27429;BME280;14881;48.092;11.574;2022-12-07T03:00:19;95336.19;;;1.90;100.00
27429;BME280;14881;48.092;11.574;2022-12-07T03:02:54;95331.56;;;1.85;100.00
27429;BME280;14881;48.092;11.574;2022-12-07T03:05:41;95335.53;;;1.83;100.00
27429;BME280;14881;48.092;11.574;2022-12-07T03:08:12;95333.66;;;1.83;100.00
27429;BME280;14881;48.092;11.574;2022-12-07T03:10:50;95338.88;;;1.90;100.00
27429;BME280;14881;48.092;11.574;2022-12-07T03:13:23;95330.03;;;1.89;100.00
27429;BME280;14881;48.092;11.574;2022-12-07T03:15:58;95328.88;;;1.85;100.00
27429;BME280;14881;48.092;11.574;2022-12-07T03:18:32;95331.66;;;1.90;100.00
27429;BME280;14881;48.092;11.574;2022-12-07T03:21:04;95332.06;;;1.99;100.00
27429;BME280;14881;48.092;11.574;2022-12-07T03:23:34;95338.94;;;1.95;100.00
27429;BME280;14881;48.092;11.574;2022-12-07T03:26:08;95330.50;;;1.86;100.00
27429;BME280;14881;48.092;11.574;2022-12-07T03:28:41;95336.00;;;1.80;100.00
27429;BME280;14881;48.092;11.574;2022-12-07T03:31:13;95332.25;;;1.81;100.00
27429;BME280;14881;48.092;11.574;2022-12-07T03:33:48;95336.22;;;1.78;100.00
27429;BME280;14881;48.092;11.574;2022-12-07T03:36:21;95330.28;;;1.76;100.00
27429;BME280;14881;48.092;11.574;2022-12-07T03:38:55;95329.47;;;1.75;100.00
27429;BME280;14881;48.092;11.574;2022-12-07T03:41:27;95323.41;;;1.80;100.00
27429;BME280;14881;48.092;11.574;2022-12-07T03:43:56;95328.78;;;1.80;100.00
27429;BME280;14881;48.092;11.574;2022-12-07T03:46:34;95323.31;;;1.75;100.00
27429;BME280;14881;48.092;11.574;2022-12-07T03:49:07;95323.00;;;1.71;100.00
27429;BME280;14881;48.092;11.574;2022-12-07T03:51:40;95318.94;;;1.69;100.00
27429;BME280;14881;48.092;11.574;2022-12-07T03:54:15;95316.50;;;1.67;100.00
27429;BME280;14881;48.092;11.574;2022-12-07T03:56:46;95319.75;;;1.69;100.00
27429;BME280;14881;48.092;11.574;2022-12-07T03:59:16;95322.66;;;1.68;100.00
27429;BME280;14881;48.092;11.574;2022-12-07T04:01:52;95321.13;;;1.72;100.00
27429;BME280;14881;48.092;11.574;2022-12-07T04:04:21;95322.19;;;1.71;100.00
27429;BME280;14881;48.092;11.574;2022-12-07T04:06:49;95320.63;;;1.75;100.00
27429;BME280;14881;48.092;11.574;2022-12-07T04:09:17;95315.03;;;1.77;100.00
27429;BME280;14881;48.092;11.574;2022-12-07T04:11:45;95314.81;;;1.78;100.00
27429;BME280;14881;48.092;11.574;2022-12-07T04:14:13;95312.00;;;1.85;100.00
27429;BME280;14881;48.092;11.574;2022-12-07T04:16:49;95313.28;;;1.82;100.00
27429;BME280;14881;48.092;11.574;2022-12-07T04:19:18;95319.56;;;1.88;100.00
27429;BME280;14881;48.092;11.574;2022-12-07T04:21:47;95314.56;;;1.80;100.00
27429;BME280;14881;48.092;11.574;2022-12-07T04:24:15;95320.41;;;1.77;100.00
27429;BME280;14881;48.092;11.574;2022-12-07T04:26:44;95323.53;;;1.73;100.00
27429;BME280;14881;48.092;11.574;2022-12-07T04:29:12;95328.66;;;1.75;100.00
27429;BME280;14881;48.092;11.574;2022-12-07T04:31:40;95321.69;;;1.74;100.00
27429;BME280;14881;48.092;11.574;2022-12-07T04:34:10;95320.16;;;1.78;100.00
27429;BME280;14881;48.092;11.574;2022-12-07T04:36:39;95315.16;;;1.82;100.00
27429;BME280;14881;48.092;11.574;2022-12-07T04:39:08;95317.72;;;1.77;100.00
27429;BME280;14881;48.092;11.574;2022-12-07T04:41:36;95317.00;;;1.81;100.00
27429;BME280;14881;48.092;11.574;2022-12-07T04:44:04;95318.28;;;1.79;100.00
27429;BME280;14881;48.092;11.574;2022-12-07T04:46:34;95318.16;;;1.85;100.00
27429;BME280;14881;48.092;11.574;2022-12-07T04:49:01;95320.38;;;1.88;100.00
27429;BME280;14881;48.092;11.574;2022-12-07T04:51:31;95317.00;;;1.81;100.00
27429;BME280;14881;48.092;11.574;2022-12-07T04:53:58;95318.78;;;1.75;100.00
27429;BME280;14881;48.092;11.574;2022-12-07T04:56:26;95315.78;;;1.72;100.00
27429;BME280;14881;48.092;11.574;2022-12-07T04:58:54;95322.59;;;1.80;100.00
27429;BME280;14881;48.092;11.574;2022-12-07T05:01:23;95316.31;;;1.74;100.00
27429;BME280;14881;48.092;11.574;2022-12-07T05:03:51;95320.78;;;1.68;100.00
27429;BME280;14881;48.092;11.574;2022-12-07T05:06:19;95319.16;;;1.67;100.00
27429;BME280;14881;48.092;11.574;2022-12-07T05:08:49;95314.28;;;1.64;100.00
27429;BME280;14881;48.092;11.574;2022-12-07T05:11:16;95326.50;;;1.72;100.00
27429;BME280;14881;48.092;11.574;2022-12-07T05:13:58;95320.44;;;1.65;100.00
27429;BME280;14881;48.092;11.574;2022-12-07T05:16:29;95320.69;;;1.63;100.00
27429;BME280;14881;48.092;11.574;2022-12-07T05:18:57;95325.84;;;1.53;100.00
27429;BME280;14881;48.092;11.574;2022-12-07T05:21:25;95314.56;;;1.51;100.00
27429;BME280;14881;48.092;11.574;2022-12-07T05:23:54;95326.31;;;1.50;100.00
27429;BME280;14881;48.092;11.574;2022-12-07T05:26:22;95321.91;;;1.56;100.00
27429;BME280;14881;48.092;11.574;2022-12-07T05:28:51;95322.38;;;1.53;100.00
27429;BME280;14881;48.092;11.574;2022-12-07T05:31:19;95320.16;;;1.50;100.00
27429;BME280;14881;48.092;11.574;2022-12-07T05:33:47;95314.47;;;1.46;100.00
27429;BME280;14881;48.092;11.574;2022-12-07T05:36:15;95312.84;;;1.45;100.00
27429;BME280;14881;48.092;11.574;2022-12-07T05:38:43;95321.91;;;1.44;100.00
27429;BME280;14881;48.092;11.574;2022-12-07T05:41:14;95319.13;;;1.39;100.00
27429;BME280;14881;48.092;11.574;2022-12-07T05:43:56;95319.22;;;1.44;100.00
27429;BME280;14881;48.092;11.574;2022-12-07T05:46:24;95317.84;;;1.42;100.00
27429;BME280;14881;48.092;11.574;2022-12-07T05:48:51;95325.06;;;1.41;100.00
27429;BME280;14881;48.092;11.574;2022-12-07T05:51:19;95319.09;;;1.51;100.00
27429;BME280;14881;48.092;11.574;2022-12-07T05:53:47;95324.59;;;1.44;100.00
27429;BME280;14881;48.092;11.574;2022-12-07T05:56:16;95329.94;;;1.44;100.00
27429;BME280;14881;48.092;11.574;2022-12-07T05:58:44;95326.69;;;1.42;100.00
27429;BME280;14881;48.092;11.574;2022-12-07T06:01:29;95330.97;;;1.43;100.00
27429;BME280;14881;48.092;11.574;2022-12-07T06:03:57;95318.81;;;1.35;100.00
27429;BME280;14881;48.092;11.574;2022-12-07T06:06:25;95330.91;;;1.38;100.00
27429;BME280;14881;48.092;11.574;2022-12-07T06:08:53;95332.19;;;1.35;100.00
27429;BME280;14881;48.092;11.574;2022-12-07T06:11:22;95329.81;;;1.39;100.00
27429;BME280;14881;48.092;11.574;2022-12-07T06:14:07;95337.06;;;1.38;100.00
27429;BME280;14881;48.092;11.574;2022-12-07T06:16:34;95331.94;;;1.37;100.00
27429;BME280;14881;48.092;11.574;2022-12-07T06:19:04;95336.00;;;1.39;100.00
27429;BME280;14881;48.092;11.574;2022-12-07T06:21:32;95333.31;;;1.39;100.00
27429;BME280;14881;48.092;11.574;2022-12-07T06:24:00;95336.13;;;1.33;100.00
27429;BME280;14881;48.092;11.574;2022-12-07T06:26:29;95338.47;;;1.29;100.00
27429;BME280;14881;48.092;11.574;2022-12-07T06:28:57;95337.66;;;1.29;100.00
27429;BME280;14881;48.092;11.574;2022-12-07T06:31:25;95343.34;;;1.32;100.00
27429;BME280;14881;48.092;11.574;2022-12-07T06:33:57;95343.59;;;1.31;100.00
27429;BME280;14881;48.092;11.574;2022-12-07T06:36:25;95344.06;;;1.28;100.00
27429;BME280;14881;48.092;11.574;2022-12-07T06:38:53;95338.59;;;1.34;100.00
27429;BME280;14881;48.092;11.574;2022-12-07T06:41:22;95337.38;;;1.42;100.00
27429;BME280;14881;48.092;11.574;2022-12-07T06:43:51;95338.19;;;1.43;100.00
27429;BME280;14881;48.092;11.574;2022-12-07T06:46:21;95339.34;;;1.47;100.00
27429;BME280;14881;48.092;11.574;2022-12-07T06:48:49;95337.03;;;1.50;100.00
27429;BME280;14881;48.092;11.574;2022-12-07T06:51:17;95343.78;;;1.41;100.00
27429;BME280;14881;48.092;11.574;2022-12-07T06:53:45;95346.34;;;1.48;100.00
27429;BME280;14881;48.092;11.574;2022-12-07T06:56:13;95354.72;;;1.51;100.00
27429;BME280;14881;48.092;11.574;2022-12-07T06:58:40;95349.84;;;1.48;100.00
27429;BME280;14881;48.092;11.574;2022-12-07T07:01:11;95352.28;;;1.50;100.00
27429;BME280;14881;48.092;11.574;2022-12-07T07:03:40;95352.41;;;1.43;100.00
27429;BME280;14881;48.092;11.574;2022-12-07T07:06:10;95354.38;;;1.48;100.00
27429;BME280;14881;48.092;11.574;2022-12-07T07:08:38;95347.97;;;1.49;100.00
27429;BME280;14881;48.092;11.574;2022-12-07T07:11:07;95352.50;;;1.48;100.00
27429;BME280;14881;48.092;11.574;2022-12-07T07:13:35;95356.13;;;1.42;100.00
27429;BME280;14881;48.092;11.574;2022-12-07T07:16:04;95350.44;;;1.38;100.00
27429;BME280;14881;48.092;11.574;2022-12-07T07:18:33;95356.34;;;1.40;100.00
27429;BME280;14881;48.092;11.574;2022-12-07T07:21:01;95363.78;;;1.50;100.00
27429;BME280;14881;48.092;11.574;2022-12-07T07:23:29;95355.41;;;1.47;100.00
27429;BME280;14881;48.092;11.574;2022-12-07T07:25:57;95366.31;;;1.57;100.00
27429;BME280;14881;48.092;11.574;2022-12-07T07:28:24;95368.44;;;1.55;100.00
27429;BME280;14881;48.092;11.574;2022-12-07T07:30:52;95373.75;;;1.66;100.00
27429;BME280;14881;48.092;11.574;2022-12-07T07:33:20;95367.25;;;1.62;100.00
27429;BME280;14881;48.092;11.574;2022-12-07T07:35:49;95379.13;;;1.66;100.00
27429;BME280;14881;48.092;11.574;2022-12-07T07:38:17;95370.03;;;1.67;100.00
27429;BME280;14881;48.092;11.574;2022-12-07T07:40:45;95367.59;;;1.66;100.00
27429;BME280;14881;48.092;11.574;2022-12-07T07:43:12;95369.94;;;1.62;100.00
27429;BME280;14881;48.092;11.574;2022-12-07T07:45:40;95372.25;;;1.59;100.00
27429;BME280;14881;48.092;11.574;2022-12-07T07:48:08;95370.41;;;1.59;100.00
27429;BME280;14881;48.092;11.574;2022-12-07T07:50:39;95376.91;;;1.63;100.00
27429;BME280;14881;48.092;11.574;2022-12-07T07:53:08;95371.22;;;1.60;100.00
27429;BME280;14881;48.092;11.574;2022-12-07T07:55:35;95373.75;;;1.66;100.00
27429;BME280;14881;48.092;11.574;2022-12-07T07:58:03;95380.28;;;1.70;100.00
27429;BME280;14881;48.092;11.574;2022-12-07T08:00:31;95384.34;;;1.73;100.00
27429;BME280;14881;48.092;11.574;2022-12-07T08:02:59;95373.94;;;1.77;100.00
27429;BME280;14881;48.092;11.574;2022-12-07T08:05:26;95379.53;;;1.75;100.00
27429;BME280;14881;48.092;11.574;2022-12-07T08:07:54;95381.16;;;1.76;100.00
27429;BME280;14881;48.092;11.574;2022-12-07T08:10:23;95387.09;;;1.78;100.00
27429;BME280;14881;48.092;11.574;2022-12-07T08:12:51;95378.59;;;1.81;100.00
27429;BME280;14881;48.092;11.574;2022-12-07T08:15:38;95376.50;;;1.83;100.00
27429;BME280;14881;48.092;11.574;2022-12-07T08:18:06;95375.22;;;1.86;100.00
27429;BME280;14881;48.092;11.574;2022-12-07T08:20:35;95373.59;;;1.85;100.00
27429;BME280;14881;48.092;11.574;2022-12-07T08:23:04;95375.56;;;1.89;100.00
27429;BME280;14881;48.092;11.574;2022-12-07T08:25:33;95376.38;;;1.90;100.00
27429;BME280;14881;48.092;11.574;2022-12-07T08:28:01;95378.25;;;1.89;100.00
27429;BME280;14881;48.092;11.574;2022-12-07T08:30:29;95375.56;;;1.89;100.00
27429;BME280;14881;48.092;11.574;2022-12-07T08:32:57;95374.59;;;1.95;100.00
27429;BME280;14881;48.092;11.574;2022-12-07T08:35:25;95381.00;;;1.94;100.00
27429;BME280;14881;48.092;11.574;2022-12-07T08:37:53;95366.31;;;1.97;100.00
27429;BME280;14881;48.092;11.574;2022-12-07T08:40:21;95379.91;;;2.07;100.00
27429;BME280;14881;48.092;11.574;2022-12-07T08:42:50;95385.22;;;2.19;100.00
27429;BME280;14881;48.092;11.574;2022-12-07T08:45:19;95380.25;;;2.27;100.00
27429;BME280;14881;48.092;11.574;2022-12-07T08:47:55;95380.03;;;2.29;100.00
27429;BME280;14881;48.092;11.574;2022-12-07T08:50:25;95377.34;;;2.29;100.00
27429;BME280;14881;48.092;11.574;2022-12-07T08:52:54;95370.47;;;2.33;100.00
27429;BME280;14881;48.092;11.574;2022-12-07T08:55:23;95367.78;;;2.33;100.00
27429;BME280;14881;48.092;11.574;2022-12-07T08:57:52;95378.97;;;2.30;100.00
27429;BME280;14881;48.092;11.574;2022-12-07T09:00:20;95372.31;;;2.32;100.00
27429;BME280;14881;48.092;11.574;2022-12-07T09:02:48;95373.81;;;2.40;100.00
27429;BME280;14881;48.092;11.574;2022-12-07T09:05:16;95383.22;;;2.42;100.00
27429;BME280;14881;48.092;11.574;2022-12-07T09:07:48;95386.00;;;2.48;100.00
27429;BME280;14881;48.092;11.574;2022-12-07T09:10:17;95384.56;;;2.57;100.00
27429;BME280;14881;48.092;11.574;2022-12-07T09:12:45;95387.53;;;2.60;100.00
27429;BME280;14881;48.092;11.574;2022-12-07T09:15:14;95384.84;;;2.60;100.00
27429;BME280;14881;48.092;11.574;2022-12-07T09:17:43;95376.44;;;2.68;100.00
27429;BME280;14881;48.092;11.574;2022-12-07T09:20:12;95375.28;;;2.81;100.00
27429;BME280;14881;48.092;11.574;2022-12-07T09:22:39;95368.88;;;2.82;100.00
27429;BME280;14881;48.092;11.574;2022-12-07T09:25:07;95362.63;;;2.76;100.00
27429;BME280;14881;48.092;11.574;2022-12-07T09:27:35;95360.75;;;2.77;100.00
27429;BME280;14881;48.092;11.574;2022-12-07T09:30:04;95355.44;;;2.82;100.00
27429;BME280;14881;48.092;11.574;2022-12-07T09:32:33;95360.91;;;2.87;100.00
27429;BME280;14881;48.092;11.574;2022-12-07T09:35:01;95364.72;;;2.91;100.00
27429;BME280;14881;48.092;11.574;2022-12-07T09:37:29;95365.84;;;2.95;100.00
27429;BME280;14881;48.092;11.574;2022-12-07T09:40:01;95361.69;;;3.04;100.00
27429;BME280;14881;48.092;11.574;2022-12-07T09:42:34;95359.91;;;3.10;100.00
27429;BME280;14881;48.092;11.574;2022-12-07T09:45:05;95355.75;;;3.19;100.00
27429;BME280;14881;48.092;11.574;2022-12-07T09:47:35;95339.03;;;3.34;100.00
27429;BME280;14881;48.092;11.574;2022-12-07T09:50:05;95338.47;;;3.32;100.00
27429;BME280;14881;48.092;11.574;2022-12-07T09:52:33;95342.91;;;3.43;100.00
27429;BME280;14881;48.092;11.574;2022-12-07T09:55:10;95334.66;;;3.49;100.00
27429;BME280;14881;48.092;11.574;2022-12-07T09:57:39;95336.44;;;3.61;100.00
27429;BME280;14881;48.092;11.574;2022-12-07T10:00:12;95333.94;;;3.76;100.00
27429;BME280;14881;48.092;11.574;2022-12-07T10:02:44;95333.50;;;3.62;100.00
27429;BME280;14881;48.092;11.574;2022-12-07T10:05:14;95334.59;;;3.66;100.00
27429;BME280;14881;48.092;11.574;2022-12-07T10:07:50;95327.16;;;3.73;100.00
27429;BME280;14881;48.092;11.574;2022-12-07T10:10:23;95321.72;;;3.90;100.00
27429;BME280;14881;48.092;11.574;2022-12-07T10:13:02;95322.22;;;3.87;100.00
27429;BME280;14881;48.092;11.574;2022-12-07T10:15:47;95318.16;;;3.84;100.00
27429;BME280;14881;48.092;11.574;2022-12-07T10:18:20;95320.53;;;3.81;100.00
27429;BME280;14881;48.092;11.574;2022-12-07T10:20:48;95319.34;;;3.94;100.00
27429;BME280;14881;48.092;11.574;2022-12-07T10:23:17;95327.44;;;3.99;100.00
27429;BME280;14881;48.092;11.574;2022-12-07T10:25:45;95318.75;;;4.13;100.00
27429;BME280;14881;48.092;11.574;2022-12-07T10:28:16;95314.59;;;4.28;100.00
27429;BME280;14881;48.092;11.574;2022-12-07T10:30:50;95318.41;;;4.37;100.00
27429;BME280;14881;48.092;11.574;2022-12-07T10:33:33;95314.34;;;4.34;100.00
27429;BME280;14881;48.092;11.574;2022-12-07T10:36:17;95318.66;;;4.30;100.00
27429;BME280;14881;48.092;11.574;2022-12-07T10:38:47;95318.97;;;4.39;100.00
27429;BME280;14881;48.092;11.574;2022-12-07T10:41:15;95313.53;;;4.34;100.00
27429;BME280;14881;48.092;11.574;2022-12-07T10:43:50;95315.53;;;4.43;100.00
27429;BME280;14881;48.092;11.574;2022-12-07T10:49:54;95311.72;;;4.39;100.00
27429;BME280;14881;48.092;11.574;2022-12-07T10:52:39;95313.34;;;4.40;100.00
27429;BME280;14881;48.092;11.574;2022-12-07T10:55:21;95302.66;;;4.50;100.00
27429;BME280;14881;48.092;11.574;2022-12-07T10:58:02;95291.66;;;4.84;100.00
27429;BME280;14881;48.092;11.574;2022-12-07T11:00:37;95292.31;;;5.06;100.00
27429;BME280;14881;48.092;11.574;2022-12-07T11:03:23;95295.81;;;5.07;100.00
27429;BME280;14881;48.092;11.574;2022-12-07T11:06:01;95279.25;;;4.83;100.00
27429;BME280;14881;48.092;11.574;2022-12-07T11:08:43;95285.97;;;4.80;100.00
27429;BME280;14881;48.092;11.574;2022-12-07T11:11:14;95272.75;;;4.79;100.00
27429;BME280;14881;48.092;11.574;2022-12-07T11:13:51;95260.84;;;4.70;100.00
27429;BME280;14881;48.092;11.574;2022-12-07T11:16:43;95262.13;;;4.99;100.00
27429;BME280;14881;48.092;11.574;2022-12-07T11:19:24;95263.53;;;4.70;100.00
27429;BME280;14881;48.092;11.574;2022-12-07T11:21:59;95263.75;;;5.05;100.00
27429;BME280;14881;48.092;11.574;2022-12-07T11:24:35;95266.66;;;5.46;100.00
27429;BME280;14881;48.092;11.574;2022-12-07T11:27:17;95266.75;;;5.66;100.00
27429;BME280;14881;48.092;11.574;2022-12-07T11:30:13;95254.28;;;5.55;100.00
27429;BME280;14881;48.092;11.574;2022-12-07T11:33:04;95249.47;;;5.52;100.00
27429;BME280;14881;48.092;11.574;2022-12-07T11:35:46;95250.63;;;5.86;100.00
27429;BME280;14881;48.092;11.574;2022-12-07T11:38:20;95244.53;;;6.52;100.00
27429;BME280;14881;48.092;11.574;2022-12-07T11:40:58;95248.56;;;6.59;100.00
27429;BME280;14881;48.092;11.574;2022-12-07T11:43:52;95242.91;;;6.36;100.00
27429;BME280;14881;48.092;11.574;2022-12-07T11:46:24;95241.81;;;6.67;100.00
27429;BME280;14881;48.092;11.574;2022-12-07T11:48:58;95241.00;;;6.26;100.00
27429;BME280;14881;48.092;11.574;2022-12-07T11:51:29;95236.94;;;6.03;100.00
27429;BME280;14881;48.092;11.574;2022-12-07T11:54:05;95245.34;;;5.39;100.00
27429;BME280;14881;48.092;11.574;2022-12-07T11:56:39;95234.00;;;5.27;100.00
27429;BME280;14881;48.092;11.574;2022-12-07T11:59:11;95238.97;;;5.03;100.00
27429;BME280;14881;48.092;11.574;2022-12-07T12:01:51;95234.41;;;4.99;100.00
27429;BME280;14881;48.092;11.574;2022-12-07T12:04:30;95222.53;;;4.95;100.00
27429;BME280;14881;48.092;11.574;2022-12-07T12:07:02;95216.47;;;4.67;100.00
27429;BME280;14881;48.092;11.574;2022-12-07T12:09:58;95223.25;;;4.85;100.00
27429;BME280;14881;48.092;11.574;2022-12-07T12:12:39;95216.06;;;4.96;100.00
27429;BME280;14881;48.092;11.574;2022-12-07T12:15:42;95217.38;;;5.50;100.00
27429;BME280;14881;48.092;11.574;2022-12-07T12:21:22;95195.34;;;5.79;100.00
27429;BME280;14881;48.092;11.574;2022-12-07T12:23:57;95199.06;;;5.57;100.00
27429;BME280;14881;48.092;11.574;2022-12-07T12:26:30;95203.66;;;5.62;100.00
27429;BME280;14881;48.092;11.574;2022-12-07T12:29:00;95198.53;;;5.60;100.00
27429;BME280;14881;48.092;11.574;2022-12-07T12:31:34;95204.69;;;5.46;100.00
27429;BME280;14881;48.092;11.574;2022-12-07T12:34:10;95209.53;;;5.34;100.00
27429;BME280;14881;48.092;11.574;2022-12-07T12:36:52;95204.81;;;5.09;100.00
27429;BME280;14881;48.092;11.574;2022-12-07T12:39:19;95201.84;;;5.00;100.00
27429;BME280;14881;48.092;11.574;2022-12-07T12:41:58;95198.28;;;4.89;100.00
27429;BME280;14881;48.092;11.574;2022-12-07T12:45:17;95203.00;;;5.24;100.00
27429;BME280;14881;48.092;11.574;2022-12-07T12:48:07;95202.00;;;5.41;100.00
27429;BME280;14881;48.092;11.574;2022-12-07T12:54:11;95191.88;;;5.06;100.00
27429;BME280;14881;48.092;11.574;2022-12-07T12:56:45;95206.19;;;5.11;100.00
27429;BME280;14881;48.092;11.574;2022-12-07T12:59:25;95193.50;;;5.07;100.00
27429;BME280;14881;48.092;11.574;2022-12-07T13:01:56;95195.09;;;5.03;100.00
27429;BME280;14881;48.092;11.574;2022-12-07T13:04:39;95185.63;;;4.90;100.00
27429;BME280;14881;48.092;11.574;2022-12-07T13:07:13;95189.81;;;4.66;100.00
27429;BME280;14881;48.092;11.574;2022-12-07T13:09:45;95197.19;;;4.43;100.00
27429;BME280;14881;48.092;11.574;2022-12-07T13:12:14;95191.19;;;4.31;100.00
27429;BME280;14881;48.092;11.574;2022-12-07T13:14:57;95193.53;;;4.23;100.00
27429;BME280;14881;48.092;11.574;2022-12-07T13:17:55;95194.97;;;4.35;100.00
27429;BME280;14881;48.092;11.574;2022-12-07T13:20:43;95185.94;;;4.51;100.00
27429;BME280;14881;48.092;11.574;2022-12-07T13:23:12;95182.25;;;4.63;100.00
27429;BME280;14881;48.092;11.574;2022-12-07T13:25:51;95178.09;;;4.92;100.00